createdAt,value
2023-03-12T00:01:14.105Z,95756.66
2023-03-12T00:03:40.882Z,95738.16
2023-03-12T00:06:10.804Z,95626.69
2023-03-12T00:08:38.350Z,95678.03
2023-03-12T00:11:17.686Z,95754.69
2023-03-12T00:13:44.962Z,95741.88
2023-03-12T00:16:14.382Z,95763.22
2023-03-12T00:18:41.899Z,95703.84
2023-03-12T00:21:08.826Z,95757.69
2023-03-12T00:23:35.914Z,95753.34
2023-03-12T00:26:12.296Z,95762.34
2023-03-12T00:28:39.446Z,95748.94
2023-03-12T00:31:21.018Z,95770.19
2023-03-12T00:33:51.492Z,95751.97
2023-03-12T00:36:19.747Z,95763.00
2023-03-12T00:38:46.396Z,95751.84
2023-03-12T00:41:13.082Z,95754.63
2023-03-12T00:43:39.843Z,95739.06
2023-03-12T00:46:06.590Z,95754.16
2023-03-12T00:48:33.415Z,95757.16
2023-03-12T00:51:00.024Z,95753.16
2023-03-12T00:53:26.623Z,95750.75
2023-03-12T00:55:53.264Z,95731.31
2023-03-12T00:58:19.909Z,95682.69
2023-03-12T01:00:46.648Z,95681.59
2023-03-12T01:03:13.747Z,95725.97
2023-03-12T01:05:40.957Z,95698.63
2023-03-12T01:08:08.935Z,95664.63
2023-03-12T01:10:37.075Z,95727.16
2023-03-12T01:13:04.097Z,95715.03
2023-03-12T01:15:30.739Z,95717.06
2023-03-12T01:17:57.308Z,95704.47
2023-03-12T01:20:23.928Z,95707.69
2023-03-12T01:22:51.551Z,95672.69
2023-03-12T01:25:18.733Z,95700.53
2023-03-12T01:27:45.741Z,95725.09
2023-03-12T01:30:13.072Z,95738.50
2023-03-12T01:32:39.823Z,95734.16
2023-03-12T01:35:07.327Z,95646.38
2023-03-12T01:37:34.096Z,95650.66
2023-03-12T01:40:01.305Z,95644.50
2023-03-12T01:42:27.967Z,95719.25
2023-03-12T01:45:00.037Z,95710.09
2023-03-12T01:47:28.126Z,95710.19
2023-03-12T01:49:55.828Z,95697.66
2023-03-12T01:52:27.608Z,95655.63
2023-03-12T01:55:03.444Z,95718.53
2023-03-12T01:57:33.013Z,95715.19
2023-03-12T02:00:09.760Z,95722.19
2023-03-12T02:02:36.774Z,95727.09
2023-03-12T02:05:13.591Z,95724.22
2023-03-12T02:07:40.216Z,95739.69
2023-03-12T02:10:07.260Z,95708.56
2023-03-12T02:12:33.963Z,95657.13
2023-03-12T02:15:00.850Z,95750.94
2023-03-12T02:17:27.772Z,95716.53
2023-03-12T02:20:12.294Z,95750.41
2023-03-12T02:22:42.598Z,95756.69
2023-03-12T02:25:30.985Z,95776.47
2023-03-12T02:28:01.754Z,95773.94
2023-03-12T02:30:30.194Z,95709.09
2023-03-12T02:33:00.069Z,95749.56
2023-03-12T02:35:26.876Z,95673.44
2023-03-12T02:37:56.070Z,95749.31
2023-03-12T02:40:31.901Z,95782.13
2023-03-12T02:42:58.621Z,95789.88
2023-03-12T02:45:26.681Z,95789.72
2023-03-12T02:47:53.473Z,95698.31
2023-03-12T02:50:20.179Z,95836.78
2023-03-12T02:52:46.895Z,95811.03
2023-03-12T02:55:13.645Z,95787.50
2023-03-12T02:57:40.688Z,95840.16
2023-03-12T03:00:17.939Z,95787.38
2023-03-12T03:02:44.535Z,95748.81
2023-03-12T03:05:12.274Z,95878.75
2023-03-12T03:07:39.323Z,95902.81
2023-03-12T03:10:06.410Z,95907.00
2023-03-12T03:12:37.476Z,95867.78
2023-03-12T03:15:05.263Z,95820.91
2023-03-12T03:17:31.871Z,95694.50
2023-03-12T03:19:58.487Z,95842.66
2023-03-12T03:22:25.076Z,95835.72
2023-03-12T03:24:53.321Z,95855.72
2023-03-12T03:27:20.363Z,95851.41
2023-03-12T03:29:47.029Z,95860.38
2023-03-12T03:32:13.921Z,95879.22
2023-03-12T03:34:40.642Z,95801.38
2023-03-12T03:37:07.312Z,95888.44
2023-03-12T03:39:34.683Z,95917.19
2023-03-12T03:42:01.364Z,95840.28
2023-03-12T03:44:27.981Z,95920.91
2023-03-12T03:46:55.496Z,95947.97
2023-03-12T03:49:22.651Z,95937.72
2023-03-12T03:51:50.065Z,95918.16
2023-03-12T03:54:16.768Z,95947.41
2023-03-12T03:56:43.371Z,95934.03
2023-03-12T03:59:09.985Z,95859.13
2023-03-12T04:01:36.984Z,95928.63
2023-03-12T04:04:04.564Z,95886.38
2023-03-12T04:06:31.349Z,95929.38
2023-03-12T04:08:58.562Z,95898.38
2023-03-12T04:11:25.841Z,95933.06
2023-03-12T04:13:52.483Z,95948.47
2023-03-12T04:16:19.512Z,95887.75
2023-03-12T04:18:46.101Z,95965.28
2023-03-12T04:21:14.182Z,95980.28
2023-03-12T04:23:41.352Z,95984.53
2023-03-12T04:26:08.428Z,95991.69
2023-03-12T04:28:36.084Z,96009.44
2023-03-12T04:31:05.505Z,96004.78
2023-03-12T04:33:34.680Z,96005.75
2023-03-12T04:36:01.264Z,95989.91
2023-03-12T04:38:28.318Z,96008.81
2023-03-12T04:41:04.097Z,95981.31
2023-03-12T04:43:31.978Z,96004.44
2023-03-12T04:45:58.893Z,95896.09
2023-03-12T04:48:25.829Z,96025.44
2023-03-12T04:50:52.596Z,96024.16
2023-03-12T04:53:19.412Z,96020.34
2023-03-12T04:55:46.086Z,96013.38
2023-03-12T04:58:13.031Z,96039.16
2023-03-12T05:00:41.103Z,96038.22
2023-03-12T05:03:08.220Z,95967.69
2023-03-12T05:05:35.934Z,96052.81
2023-03-12T05:08:03.553Z,96062.06
2023-03-12T05:10:30.317Z,96065.44
2023-03-12T05:12:56.962Z,96076.81
2023-03-12T05:15:23.720Z,96064.47
2023-03-12T05:17:50.424Z,96079.69
2023-03-12T05:20:19.792Z,96038.22
2023-03-12T05:22:46.416Z,96037.50
2023-03-12T05:25:13.023Z,96075.06
2023-03-12T05:27:39.683Z,96099.22
2023-03-12T05:30:07.478Z,96087.94
2023-03-12T05:32:34.088Z,96069.28
2023-03-12T05:35:00.690Z,96093.53
2023-03-12T05:37:27.538Z,96082.25
2023-03-12T05:39:54.819Z,96082.31
2023-03-12T05:42:21.472Z,96124.94
2023-03-12T05:44:48.277Z,96121.84
2023-03-12T05:47:14.886Z,96115.94
2023-03-12T05:49:41.580Z,96071.91
2023-03-12T05:52:08.296Z,96136.06
2023-03-12T05:54:34.902Z,96137.72
2023-03-12T05:57:03.134Z,96151.38
2023-03-12T05:59:29.859Z,96071.56
2023-03-12T06:01:57.309Z,96165.56
2023-03-12T06:04:24.056Z,96096.06
2023-03-12T06:06:50.634Z,96119.03
2023-03-12T06:09:17.213Z,96160.75
2023-03-12T06:11:43.844Z,96188.69
2023-03-12T06:14:10.455Z,96187.47
2023-03-12T06:16:37.073Z,96138.19
2023-03-12T06:19:03.977Z,96185.34
2023-03-12T06:21:33.817Z,96193.00
2023-03-12T06:24:01.132Z,96186.72
2023-03-12T06:26:28.819Z,96198.47
2023-03-12T06:28:55.560Z,96150.06
2023-03-12T06:31:23.752Z,96212.06
2023-03-12T06:33:50.876Z,96234.19
2023-03-12T06:36:18.196Z,96219.66
2023-03-12T06:38:44.863Z,96231.78
2023-03-12T06:41:18.265Z,96145.59
2023-03-12T06:43:45.108Z,96233.53
2023-03-12T06:46:15.404Z,96152.97
2023-03-12T06:48:42.349Z,96184.25
2023-03-12T06:51:10.815Z,96242.66
2023-03-12T06:53:41.867Z,96242.00
2023-03-12T06:56:09.532Z,96196.84
2023-03-12T06:58:36.198Z,96148.97
2023-03-12T07:01:02.893Z,96253.03
2023-03-12T07:03:29.490Z,96255.91
2023-03-12T07:05:57.852Z,96249.06
2023-03-12T07:08:25.776Z,96226.31
2023-03-12T07:10:52.389Z,96234.91
2023-03-12T07:13:19.093Z,96259.19
2023-03-12T07:15:46.618Z,96215.94
2023-03-12T07:18:14.026Z,96261.41
2023-03-12T07:20:44.051Z,96250.44
2023-03-12T07:23:11.150Z,96262.19
2023-03-12T07:25:39.847Z,96235.69
2023-03-12T07:28:07.620Z,96264.16
2023-03-12T07:30:34.588Z,96228.63
2023-03-12T07:33:06.969Z,96252.53
2023-03-12T07:35:34.016Z,96284.53
2023-03-12T07:38:01.803Z,96273.06
2023-03-12T07:40:29.237Z,96273.50
2023-03-12T07:42:55.850Z,96264.38
2023-03-12T07:45:22.679Z,96280.00
2023-03-12T07:47:49.774Z,96272.81
2023-03-12T07:50:17.816Z,96267.16
2023-03-12T07:52:45.378Z,96243.88
2023-03-12T07:55:12.627Z,96268.00
2023-03-12T07:57:39.649Z,96229.66
2023-03-12T08:00:08.737Z,96345.41
2023-03-12T08:02:35.393Z,96290.69
2023-03-12T08:05:02.692Z,96296.13
2023-03-12T08:07:32.510Z,96281.84
2023-03-12T08:09:59.921Z,96298.38
2023-03-12T08:12:27.432Z,96310.16
2023-03-12T08:14:54.114Z,96296.91
2023-03-12T08:17:20.766Z,96305.41
2023-03-12T08:19:47.562Z,96298.66
2023-03-12T08:22:14.223Z,96298.91
2023-03-12T08:24:41.044Z,96251.59
2023-03-12T08:27:07.676Z,96289.13
2023-03-12T08:29:34.253Z,96305.72
2023-03-12T08:32:05.403Z,96251.75
2023-03-12T08:34:35.693Z,96278.66
2023-03-12T08:37:03.108Z,96293.75
2023-03-12T08:39:29.952Z,96294.66
2023-03-12T08:41:56.744Z,96301.06
2023-03-12T08:44:25.580Z,96303.53
2023-03-12T08:46:52.869Z,96251.06
2023-03-12T08:49:22.555Z,96239.22
2023-03-12T08:51:49.669Z,96311.53
2023-03-12T08:54:16.252Z,96312.38
2023-03-12T08:56:43.798Z,96309.94
2023-03-12T08:59:11.809Z,96304.41
2023-03-12T09:01:38.805Z,96316.22
2023-03-12T09:04:06.063Z,96320.22
2023-03-12T09:06:35.296Z,96248.81
2023-03-12T09:09:05.128Z,96294.81
2023-03-12T09:11:33.954Z,96261.03
2023-03-12T09:16:48.380Z,96313.19
2023-03-12T09:19:15.478Z,96317.59
2023-03-12T09:21:42.081Z,96321.59
2023-03-12T09:24:09.995Z,96268.06
2023-03-12T09:26:36.700Z,96316.47
2023-03-12T09:29:03.283Z,96314.88
2023-03-12T09:31:29.850Z,96294.59
2023-03-12T09:33:56.545Z,96310.09
2023-03-12T09:36:23.254Z,96313.28
2023-03-12T09:38:49.857Z,96324.38
2023-03-12T09:41:23.583Z,96321.22
2023-03-12T09:44:00.049Z,96324.91
2023-03-12T09:46:42.185Z,96326.47
2023-03-12T09:49:22.960Z,96330.94
2023-03-12T09:51:54.189Z,96331.41
2023-03-12T09:54:41.834Z,96352.19
2023-03-12T09:57:24.228Z,96282.47
2023-03-12T09:59:52.501Z,96340.06
2023-03-12T10:02:37.361Z,96336.97
2023-03-12T10:05:34.491Z,96341.25
2023-03-12T10:08:23.180Z,96353.06
2023-03-12T10:11:12.300Z,96349.00
2023-03-12T10:14:23.820Z,96339.88
2023-03-12T10:17:22.150Z,96352.09
2023-03-12T10:20:05.493Z,96352.00
2023-03-12T10:22:46.649Z,96303.34
2023-03-12T10:25:46.536Z,96356.50
2023-03-12T10:28:21.085Z,96353.44
2023-03-12T10:30:54.352Z,96365.47
2023-03-12T10:33:23.163Z,96277.88
2023-03-12T10:35:51.598Z,96360.50
2023-03-12T10:38:26.909Z,96366.34
2023-03-12T10:40:53.596Z,96355.78
2023-03-12T10:43:20.257Z,96343.91
2023-03-12T10:46:12.168Z,96377.13
2023-03-12T10:48:38.765Z,96373.84
2023-03-12T10:51:11.553Z,96372.13
2023-03-12T10:53:45.028Z,96352.41
2023-03-12T10:56:16.896Z,96348.59
2023-03-12T10:58:53.450Z,96366.28
2023-03-12T11:01:31.307Z,96353.47
2023-03-12T11:04:23.483Z,96360.72
2023-03-12T11:07:14.751Z,96367.59
2023-03-12T11:09:41.408Z,96304.38
2023-03-12T11:12:32.099Z,96283.94
2023-03-12T11:14:59.168Z,96291.44
2023-03-12T11:17:28.578Z,96328.13
2023-03-12T11:19:55.414Z,96311.66
2023-03-12T11:22:35.394Z,96299.34
2023-03-12T11:25:07.050Z,96313.94
2023-03-12T11:27:44.151Z,96371.56
2023-03-12T11:30:15.395Z,96288.81
2023-03-12T11:32:45.935Z,96374.47
2023-03-12T11:35:15.822Z,96367.28
2023-03-12T11:37:51.382Z,96374.81
2023-03-12T11:40:17.914Z,96377.84
2023-03-12T11:43:13.666Z,96380.06
2023-03-12T11:46:25.262Z,96380.13
2023-03-12T11:49:13.651Z,96381.63
2023-03-12T11:52:00.741Z,96381.94
2023-03-12T11:54:51.748Z,96392.91
2023-03-12T11:57:48.836Z,96394.09
2023-03-12T12:00:25.748Z,96390.94
2023-03-12T12:03:04.301Z,96404.44
2023-03-12T12:05:33.637Z,96398.41
2023-03-12T12:08:15.211Z,96401.16
2023-03-12T12:10:44.721Z,96397.91
2023-03-12T12:13:30.050Z,96406.31
2023-03-12T12:16:26.538Z,96330.31
2023-03-12T12:19:09.018Z,96409.41
2023-03-12T12:21:35.578Z,96407.94
2023-03-12T12:24:24.164Z,96426.75
2023-03-12T12:27:02.401Z,96423.22
2023-03-12T12:30:00.112Z,96418.16
2023-03-12T12:33:05.364Z,96431.56
2023-03-12T12:35:43.206Z,96427.66
2023-03-12T12:38:17.304Z,96426.78
2023-03-12T12:40:49.361Z,96414.41
2023-03-12T12:43:30.208Z,96444.16
2023-03-12T12:46:04.296Z,96446.31
2023-03-12T12:48:40.048Z,96448.84
2023-03-12T12:51:09.127Z,96445.00
2023-03-12T12:53:38.444Z,96446.41
2023-03-12T12:56:38.690Z,96453.78
2023-03-12T12:59:08.165Z,96451.47
2023-03-12T13:01:36.701Z,96443.41
2023-03-12T13:04:34.405Z,96456.91
2023-03-12T13:07:25.232Z,96460.22
2023-03-12T13:09:56.473Z,96443.50
2023-03-12T13:12:33.289Z,96460.22
2023-03-12T13:15:01.423Z,96459.16
2023-03-12T13:17:35.205Z,96438.28
2023-03-12T13:20:11.080Z,96468.94
2023-03-12T13:22:58.375Z,96470.16
2023-03-12T13:25:43.590Z,96471.31
2023-03-12T13:28:34.888Z,96466.81
2023-03-12T13:31:29.464Z,96463.69
2023-03-12T13:34:20.354Z,96476.56
2023-03-12T13:36:51.304Z,96477.38
2023-03-12T13:39:17.833Z,96472.50
2023-03-12T13:41:55.906Z,96489.72
2023-03-12T13:44:34.462Z,96493.16
2023-03-12T13:47:26.975Z,96491.72
2023-03-12T13:49:58.619Z,96501.53
2023-03-12T13:52:40.392Z,96498.06
2023-03-12T13:55:13.015Z,96493.16
2023-03-12T13:57:41.717Z,96504.56
2023-03-12T14:00:31.251Z,96505.50
2023-03-12T14:03:02.531Z,96483.53
2023-03-12T14:05:44.209Z,96480.94
2023-03-12T14:08:35.579Z,96438.97
2023-03-12T14:11:33.533Z,96502.88
2023-03-12T14:14:41.470Z,96503.88
2023-03-12T14:17:36.159Z,96496.09
2023-03-12T14:20:25.510Z,96520.94
2023-03-12T14:23:00.883Z,96508.66
2023-03-12T14:25:39.580Z,96516.03
2023-03-12T14:28:27.266Z,96525.03
2023-03-12T14:31:04.992Z,96530.56
2023-03-12T14:33:35.996Z,96525.34
2023-03-12T14:36:44.751Z,96521.56
2023-03-12T14:39:33.462Z,96532.72
2023-03-12T14:42:05.076Z,96506.97
2023-03-12T14:44:33.613Z,96533.38
2023-03-12T14:47:06.984Z,96531.66
2023-03-12T14:49:39.111Z,96534.53
2023-03-12T14:52:06.082Z,96429.09
2023-03-12T14:54:32.831Z,96469.44
2023-03-12T14:56:59.628Z,96554.88
2023-03-12T14:59:32.071Z,96540.34
2023-03-12T15:02:11.046Z,96547.66
2023-03-12T15:04:38.128Z,96550.88
2023-03-12T15:07:06.909Z,96524.09
2023-03-12T15:09:35.748Z,96506.50
2023-03-12T15:12:24.102Z,96561.72
2023-03-12T15:14:55.026Z,96552.94
2023-03-12T15:17:25.518Z,96499.22
2023-03-12T15:19:54.717Z,96562.88
2023-03-12T15:22:24.870Z,96558.28
2023-03-12T15:24:52.101Z,96577.34
2023-03-12T15:27:30.643Z,96586.72
2023-03-12T15:29:59.290Z,96599.56
2023-03-12T15:32:27.453Z,96592.22
2023-03-12T15:34:57.583Z,96594.13
2023-03-12T15:37:35.287Z,96607.31
2023-03-12T15:40:06.483Z,96609.06
2023-03-12T15:42:40.172Z,96601.38
2023-03-12T15:45:21.800Z,96553.63
2023-03-12T15:47:50.375Z,96618.50
2023-03-12T15:50:20.013Z,96607.16
2023-03-12T15:53:27.731Z,96611.81
2023-03-12T15:56:09.677Z,96627.63
2023-03-12T15:58:41.630Z,96628.34
2023-03-12T16:01:12.662Z,96627.94
2023-03-12T16:03:40.656Z,96630.47
2023-03-12T16:06:13.459Z,96622.88
2023-03-12T16:08:43.731Z,96596.47
2023-03-12T16:11:17.220Z,96650.75
2023-03-12T16:13:45.066Z,96658.28
2023-03-12T16:16:13.195Z,96639.41
2023-03-12T16:18:42.060Z,96672.75
2023-03-12T16:21:09.186Z,96676.56
2023-03-12T16:23:35.882Z,96554.63
2023-03-12T16:26:05.039Z,96599.63
2023-03-12T16:28:36.579Z,96697.19
2023-03-12T16:31:03.530Z,96701.78
2023-03-12T16:33:30.184Z,96706.44
2023-03-12T16:35:57.116Z,96703.22
2023-03-12T16:38:23.801Z,96655.03
2023-03-12T16:40:52.072Z,96708.00
2023-03-12T16:43:30.573Z,96733.69
2023-03-12T16:45:57.971Z,96735.66
2023-03-12T16:48:25.559Z,96741.16
2023-03-12T16:50:55.705Z,96738.25
2023-03-12T16:53:23.263Z,96759.38
2023-03-12T16:55:53.748Z,96756.97
2023-03-12T16:58:21.297Z,96762.06
2023-03-12T17:00:49.216Z,96770.94
2023-03-12T17:03:27.820Z,96770.94
2023-03-12T17:05:54.481Z,96782.75
2023-03-12T17:08:21.182Z,96778.75
2023-03-12T17:10:47.756Z,96839.22
2023-03-12T17:13:20.408Z,96771.28
2023-03-12T17:15:47.765Z,96797.31
2023-03-12T17:18:14.395Z,96772.94
2023-03-12T17:20:41.067Z,96794.25
2023-03-12T17:23:10.594Z,96821.78
2023-03-12T17:25:40.736Z,96825.22
2023-03-12T17:28:08.129Z,96827.81
2023-03-12T17:30:35.609Z,96841.97
2023-03-12T17:33:07.949Z,96844.31
2023-03-12T17:35:35.173Z,96852.88
2023-03-12T17:38:01.885Z,96856.25
2023-03-12T17:40:28.778Z,96776.75
2023-03-12T17:42:55.865Z,96794.06
2023-03-12T17:45:23.629Z,96865.34
2023-03-12T17:47:50.238Z,96867.06
2023-03-12T17:50:17.682Z,96872.97
2023-03-12T17:52:44.454Z,96848.28
2023-03-12T17:55:11.938Z,96798.63
2023-03-12T17:57:39.116Z,96884.72
2023-03-12T18:00:13.024Z,96882.50
2023-03-12T18:02:41.232Z,96882.16
2023-03-12T18:05:09.824Z,96869.50
2023-03-12T18:07:37.131Z,96886.13
2023-03-12T18:10:05.922Z,96877.94
2023-03-12T18:12:32.962Z,96822.13
2023-03-12T18:14:59.801Z,96810.91
2023-03-12T18:17:26.368Z,96862.56
2023-03-12T18:19:53.123Z,96903.59
2023-03-12T18:22:20.090Z,96909.56
2023-03-12T18:24:46.828Z,96919.13
2023-03-12T18:27:13.871Z,96917.06
2023-03-12T18:29:41.249Z,96921.19
2023-03-12T18:32:08.544Z,96928.41
2023-03-12T18:34:35.184Z,96932.16
2023-03-12T18:37:01.823Z,96934.41
2023-03-12T18:39:28.514Z,96929.94
2023-03-12T18:41:55.883Z,96937.50
2023-03-12T18:44:22.535Z,96865.81
2023-03-12T18:46:50.976Z,96956.94
2023-03-12T18:49:18.134Z,96956.25
2023-03-12T18:51:44.688Z,96958.69
2023-03-12T18:54:12.885Z,96964.81
2023-03-12T18:56:40.997Z,96877.56
2023-03-12T18:59:09.888Z,96974.28
2023-03-12T19:01:37.196Z,96894.09
2023-03-12T19:04:04.214Z,96961.19
2023-03-12T19:06:37.812Z,96985.94
2023-03-12T19:09:14.887Z,96987.06
2023-03-12T19:11:41.833Z,96984.66
2023-03-12T19:14:08.836Z,96994.16
2023-03-12T19:16:35.678Z,96993.91
2023-03-12T19:19:02.379Z,96990.34
2023-03-12T19:21:29.192Z,96992.88
2023-03-12T19:23:56.318Z,96929.09
2023-03-12T19:26:23.339Z,97002.16
2023-03-12T19:28:50.180Z,97001.72
2023-03-12T19:31:16.921Z,96971.50
2023-03-12T19:33:44.811Z,97010.91
2023-03-12T19:36:11.628Z,97016.16
2023-03-12T19:38:38.331Z,97027.88
2023-03-12T19:41:08.715Z,97039.84
2023-03-12T19:43:37.692Z,96989.41
2023-03-12T19:46:05.299Z,97019.41
2023-03-12T19:48:32.232Z,97012.78
2023-03-12T19:51:08.561Z,97035.47
2023-03-12T19:53:35.876Z,97037.97
2023-03-12T19:56:05.072Z,96957.56
2023-03-12T19:58:31.766Z,96985.94
2023-03-12T20:01:03.062Z,97012.09
2023-03-12T20:03:30.896Z,97047.16
2023-03-12T20:05:57.503Z,97054.03
2023-03-12T20:08:28.117Z,97055.41
2023-03-12T20:11:02.372Z,97061.19
2023-03-12T20:13:29.368Z,97066.13
2023-03-12T20:15:55.974Z,97060.09
2023-03-12T20:18:22.802Z,97064.41
2023-03-12T20:20:49.406Z,97075.31
2023-03-12T20:23:16.373Z,97076.03
2023-03-12T20:25:43.004Z,97068.00
2023-03-12T20:28:11.174Z,97070.78
2023-03-12T20:30:41.445Z,97003.34
2023-03-12T20:33:08.710Z,97041.47
2023-03-12T20:35:35.954Z,97072.88
2023-03-12T20:38:02.845Z,97082.41
2023-03-12T20:40:29.786Z,97073.22
2023-03-12T20:42:56.718Z,96696.03
2023-03-12T20:45:23.463Z,96990.00
2023-03-12T20:47:50.260Z,97103.59
2023-03-12T20:50:17.158Z,97106.13
2023-03-12T20:52:45.095Z,97069.59
2023-03-12T20:55:11.777Z,97107.44
2023-03-12T20:57:38.521Z,97044.56
2023-03-12T21:00:05.793Z,97118.88
2023-03-12T21:02:32.444Z,97072.06
2023-03-12T21:04:59.056Z,97066.25
2023-03-12T21:07:25.649Z,97081.94
2023-03-12T21:09:52.221Z,97126.72
2023-03-12T21:12:18.893Z,97072.81
2023-03-12T21:14:45.513Z,97000.31
2023-03-12T21:17:13.859Z,97131.63
2023-03-12T21:19:41.821Z,97001.31
2023-03-12T21:22:08.969Z,97132.78
2023-03-12T21:24:35.873Z,97129.00
2023-03-12T21:27:02.955Z,97136.91
2023-03-12T21:29:29.520Z,97130.25
2023-03-12T21:31:56.164Z,97100.16
2023-03-12T21:34:23.639Z,97049.72
2023-03-12T21:36:50.426Z,97140.94
2023-03-12T21:39:17.616Z,97136.66
2023-03-12T21:41:44.257Z,97120.84
2023-03-12T21:44:10.835Z,97140.88
2023-03-12T21:46:37.587Z,97096.25
2023-03-12T21:49:04.278Z,97148.25
2023-03-12T21:51:30.939Z,97087.69
2023-03-12T21:53:58.648Z,97145.69
2023-03-12T21:56:30.306Z,97149.25
2023-03-12T21:58:57.632Z,97147.31
2023-03-12T22:01:24.770Z,97151.72
2023-03-12T22:03:51.910Z,97164.47
2023-03-12T22:06:19.293Z,97142.06
2023-03-12T22:08:49.872Z,97163.53
2023-03-12T22:11:16.566Z,97169.69
2023-03-12T22:13:43.224Z,96796.38
2023-03-12T22:16:13.022Z,97052.72
2023-03-12T22:18:42.061Z,97026.72
2023-03-12T22:21:13.599Z,97165.78
2023-03-12T22:23:40.176Z,97172.09
2023-03-12T22:26:07.175Z,97167.66
2023-03-12T22:28:34.411Z,97179.50
2023-03-12T22:31:04.257Z,97171.16
2023-03-12T22:33:31.691Z,97172.03
2023-03-12T22:35:58.772Z,97177.75
2023-03-12T22:38:25.538Z,97104.53
2023-03-12T22:40:54.954Z,97009.22
2023-03-12T22:43:22.152Z,97185.09
2023-03-12T22:45:53.213Z,97191.81
2023-03-12T22:48:19.954Z,97193.41
2023-03-12T22:50:54.129Z,97192.75
2023-03-12T22:53:20.821Z,97190.50
2023-03-12T22:55:47.365Z,97193.81
2023-03-12T22:58:15.014Z,97200.53
2023-03-12T23:00:41.607Z,97202.44
2023-03-12T23:03:08.172Z,97208.66
2023-03-12T23:05:34.943Z,97193.78
2023-03-12T23:08:01.563Z,97205.88
2023-03-12T23:10:28.164Z,97209.03
2023-03-12T23:12:54.708Z,97105.03
2023-03-12T23:15:24.522Z,97216.34
2023-03-12T23:17:55.548Z,97212.03
2023-03-12T23:20:23.768Z,97216.41
2023-03-12T23:22:50.474Z,97068.75
2023-03-12T23:25:17.184Z,97222.25
2023-03-12T23:27:43.723Z,97118.28
2023-03-12T23:30:11.176Z,97218.31
2023-03-12T23:32:37.799Z,97222.56
2023-03-12T23:35:04.655Z,97137.97
2023-03-12T23:37:31.325Z,97221.06
2023-03-12T23:39:57.871Z,97222.75
2023-03-12T23:42:26.413Z,97154.69
2023-03-12T23:44:52.984Z,97232.31
2023-03-12T23:47:19.614Z,97224.44
2023-03-12T23:49:46.179Z,97227.63
2023-03-12T23:52:12.758Z,97200.38
2023-03-12T23:54:39.380Z,97192.31
2023-03-12T23:57:06.018Z,97170.88
2023-03-12T23:59:32.628Z,97175.59
